Time;durP1;ratioP1;P1;durP2;ratioP2;P2;SDS_P1;SDS_P2;PMS_P1;PMS_P2;Temp;Humidity;BMP_temperature;BMP_pressure;BME280_temperature;BME280_humidity;BME280_pressure;Samples;Min_cycle;Max_cycle;Signal;HPM_P1;HPM_P2
2022/05/17 00:00:41;;;;;;;5.13;4.33;;;19.40;99.90;;;;;;4996156;28;20440;-63
2022/05/17 00:03:07;;;;;;;5.47;4.30;;;19.20;99.90;;;;;;4993763;28;20193;-63
2022/05/17 00:05:32;;;;;;;7.40;3.70;;;19.30;99.90;;;;;;4997571;28;20830;-63
2022/05/17 00:07:58;;;;;;;4.90;4.40;;;19.10;99.90;;;;;;4998547;28;20217;-63
2022/05/17 00:10:24;;;;;;;6.13;4.60;;;19.20;99.90;;;;;;4996942;28;20181;-63
2022/05/17 00:12:53;;;;;;;8.90;4.63;;;19.30;99.90;;;;;;4997319;28;20208;-63
2022/05/17 00:15:21;;;;;;;6.77;4.20;;;19.40;99.90;;;;;;4995961;28;20460;-63
2022/05/17 00:17:48;;;;;;;9.77;5.13;;;19.30;99.90;;;;;;4995890;28;20885;-63
2022/05/17 00:20:14;;;;;;;8.17;4.70;;;19.30;99.90;;;;;;4993337;28;20440;-62
2022/05/17 00:22:41;;;;;;;10.77;4.50;;;19.30;99.90;;;;;;4995409;28;20863;-63
2022/05/17 00:25:08;;;;;;;6.20;4.83;;;19.10;99.90;;;;;;4994879;28;20967;-62
2022/05/17 00:27:34;;;;;;;7.17;4.00;;;19.10;99.90;;;;;;4993984;28;20852;-62
2022/05/17 00:30:01;;;;;;;5.30;4.33;;;19.20;99.90;;;;;;4994924;28;20566;-62
2022/05/17 00:32:26;;;;;;;9.53;4.53;;;19.40;99.90;;;;;;4995512;28;20738;-62
2022/05/17 00:34:52;;;;;;;4.67;4.27;;;19.20;99.90;;;;;;4994641;28;20440;-62
2022/05/17 00:37:18;;;;;;;6.27;4.80;;;19.10;99.90;;;;;;4997119;28;20264;-62
2022/05/17 00:39:43;;;;;;;7.17;5.50;;;19.00;99.90;;;;;;4993130;28;20367;-63
2022/05/17 00:42:09;;;;;;;7.10;4.90;;;18.80;99.90;;;;;;4996933;28;20776;-63
2022/05/17 00:44:45;;;;;;;7.53;4.80;;;18.80;99.90;;;;;;4996801;28;20193;-63
2022/05/17 00:47:22;;;;;;;6.57;4.97;;;18.70;99.90;;;;;;4997566;28;20169;-63
2022/05/17 00:49:53;;;;;;;5.80;4.57;;;18.80;99.90;;;;;;4995865;28;20534;-62
2022/05/17 00:52:30;;;;;;;5.10;4.60;;;18.80;99.90;;;;;;4995823;28;20436;-63
2022/05/17 00:55:03;;;;;;;5.90;4.97;;;18.70;99.90;;;;;;4994728;28;20522;-63
2022/05/17 00:57:38;;;;;;;5.83;5.10;;;18.80;99.90;;;;;;4998649;28;20455;-63
2022/05/17 01:00:11;;;;;;;4.97;4.47;;;18.70;99.90;;;;;;4998603;28;20443;-62
2022/05/17 01:02:37;;;;;;;6.57;5.50;;;18.70;99.90;;;;;;4999767;28;20451;-62
2022/05/17 01:05:04;;;;;;;5.97;4.20;;;18.50;99.90;;;;;;5001793;28;20448;-63
2022/05/17 01:07:37;;;;;;;6.60;4.90;;;18.60;99.90;;;;;;4995852;28;20221;-62
2022/05/17 01:10:03;;;;;;;6.87;5.33;;;18.50;99.90;;;;;;4998868;28;20451;-63
2022/05/17 01:12:29;;;;;;;5.73;4.60;;;18.50;99.90;;;;;;4998537;28;20471;-62
2022/05/17 01:14:57;;;;;;;6.50;4.70;;;18.40;99.90;;;;;;4998497;28;20586;-63
2022/05/17 01:17:25;;;;;;;7.07;4.93;;;18.50;99.90;;;;;;4999454;28;20266;-63
2022/05/17 01:19:51;;;;;;;7.40;4.80;;;18.40;99.90;;;;;;4993937;28;20436;-62
2022/05/17 01:22:17;;;;;;;9.17;4.97;;;18.40;99.90;;;;;;4996735;28;20458;-63
2022/05/17 01:24:43;;;;;;;9.53;5.47;;;18.40;99.90;;;;;;4997356;28;20188;-62
2022/05/17 01:27:11;;;;;;;6.73;5.30;;;18.40;99.90;;;;;;4999322;28;20471;-62
2022/05/17 01:29:43;;;;;;;8.33;5.10;;;18.20;99.90;;;;;;5001386;28;20196;-63
2022/05/17 01:32:10;;;;;;;8.37;5.70;;;18.40;99.90;;;;;;5001777;28;20927;-62
2022/05/17 01:34:36;;;;;;;8.03;5.03;;;18.40;99.90;;;;;;5001933;28;20558;-62
2022/05/17 01:37:04;;;;;;;8.60;4.77;;;18.20;99.90;;;;;;4999314;28;20440;-62
2022/05/17 01:39:30;;;;;;;8.60;5.30;;;18.20;99.90;;;;;;5002320;28;20879;-62
2022/05/17 01:41:56;;;;;;;7.33;5.30;;;18.20;99.90;;;;;;5001283;28;20435;-62
2022/05/17 01:44:23;;;;;;;6.80;5.30;;;18.20;99.90;;;;;;4999107;28;20792;-62
2022/05/17 01:46:49;;;;;;;7.33;5.20;;;18.00;99.90;;;;;;4999095;28;20200;-62
2022/05/17 01:49:14;;;;;;;9.50;5.70;;;17.90;99.90;;;;;;4999719;28;20463;-62
2022/05/17 01:51:40;;;;;;;7.23;5.10;;;17.90;99.90;;;;;;4999809;28;20453;-62
2022/05/17 01:54:06;;;;;;;5.97;5.37;;;17.80;99.90;;;;;;4999384;28;20578;-63
2022/05/17 01:56:33;;;;;;;6.37;5.70;;;17.90;99.90;;;;;;4998865;28;20525;-63
2022/05/17 01:58:59;;;;;;;7.20;5.40;;;17.80;99.90;;;;;;4999456;28;20215;-63
2022/05/17 02:01:25;;;;;;;6.77;4.97;;;17.80;99.90;;;;;;4999559;28;20436;-63
2022/05/17 02:03:51;;;;;;;9.67;6.20;;;17.90;99.90;;;;;;4998782;28;20182;-63
2022/05/17 02:06:18;;;;;;;7.80;4.70;;;17.90;99.90;;;;;;4999348;28;20228;-63
2022/05/17 02:08:43;;;;;;;8.03;5.07;;;17.80;99.90;;;;;;4999463;28;20559;-63
2022/05/17 02:11:09;;;;;;;8.50;5.40;;;18.10;99.90;;;;;;4998501;28;20515;-63
2022/05/17 02:13:35;;;;;;;15.60;5.10;;;18.00;99.90;;;;;;5001989;28;20213;-63
2022/05/17 02:16:04;;;;;;;8.77;5.27;;;18.00;99.90;;;;;;4999474;28;20220;-63
2022/05/17 02:18:29;;;;;;;6.07;5.47;;;17.90;99.90;;;;;;5001879;28;20220;-64
2022/05/17 02:20:55;;;;;;;7.70;4.90;;;17.80;99.90;;;;;;4996281;28;20953;-63
2022/05/17 02:23:21;;;;;;;7.07;4.80;;;17.60;99.90;;;;;;4997728;28;20184;-63
2022/05/17 02:25:46;;;;;;;6.20;5.00;;;17.80;99.90;;;;;;4997874;28;20186;-63
2022/05/17 02:28:13;;;;;;;6.80;4.80;;;17.70;99.90;;;;;;5001174;28;20464;-63
2022/05/17 02:30:41;;;;;;;7.67;6.23;;;17.80;99.90;;;;;;4997048;28;20193;-63
2022/05/17 02:33:08;;;;;;;5.83;4.90;;;17.50;99.90;;;;;;4998132;28;21167;-63
2022/05/17 02:35:34;;;;;;;6.70;4.10;;;17.50;99.90;;;;;;4999370;28;20428;-63
2022/05/17 02:37:59;;;;;;;6.30;4.50;;;17.60;99.90;;;;;;4999962;28;20459;-63
2022/05/17 02:40:25;;;;;;;10.13;4.90;;;17.50;99.90;;;;;;4999783;28;20453;-63
2022/05/17 02:42:51;;;;;;;6.57;5.47;;;17.50;99.90;;;;;;5000422;28;20192;-63
2022/05/17 02:45:17;;;;;;;6.50;5.17;;;17.50;99.90;;;;;;4998741;28;20276;-63
2022/05/17 02:47:42;;;;;;;11.63;4.70;;;17.40;99.90;;;;;;4996777;28;20203;-63
2022/05/17 02:50:09;;;;;;;7.60;5.07;;;17.50;99.90;;;;;;4999328;28;21077;-63
2022/05/17 02:52:35;;;;;;;5.40;4.90;;;17.60;99.90;;;;;;4998515;28;20195;-63
2022/05/17 02:55:01;;;;;;;7.40;4.30;;;17.60;99.90;;;;;;4997617;28;20433;-63
2022/05/17 02:57:27;;;;;;;5.27;4.50;;;17.60;99.90;;;;;;5000770;28;20526;-63
2022/05/17 02:59:52;;;;;;;8.10;5.20;;;17.60;99.90;;;;;;4997729;28;20539;-63
2022/05/17 03:02:18;;;;;;;9.50;4.70;;;17.60;99.90;;;;;;4998533;28;20717;-62
2022/05/17 03:04:45;;;;;;;7.10;4.20;;;17.40;99.90;;;;;;4998570;28;20191;-62
2022/05/17 03:07:11;;;;;;;5.50;4.43;;;17.50;99.90;;;;;;4996286;28;20188;-63
2022/05/17 03:09:36;;;;;;;5.63;4.70;;;17.60;99.90;;;;;;5000126;28;20439;-63
2022/05/17 03:12:02;;;;;;;5.70;3.93;;;17.70;99.90;;;;;;4997531;28;20186;-63
2022/05/17 03:14:28;;;;;;;7.10;4.50;;;17.80;99.90;;;;;;4998503;28;20710;-63
2022/05/17 03:16:54;;;;;;;5.43;4.57;;;17.90;99.90;;;;;;4998693;28;20433;-63
2022/05/17 03:19:19;;;;;;;6.80;4.53;;;18.00;99.90;;;;;;4997729;28;20826;-63
2022/05/17 03:21:47;;;;;;;5.87;4.20;;;18.10;99.90;;;;;;4999672;28;20177;-63
2022/05/17 03:24:13;;;;;;;7.43;5.07;;;18.10;99.90;;;;;;4997662;28;20180;-63
2022/05/17 03:26:39;;;;;;;6.87;4.83;;;18.20;99.90;;;;;;4995286;28;20765;-63
2022/05/17 03:29:04;;;;;;;7.20;4.57;;;18.30;99.90;;;;;;5000074;28;20247;-63
2022/05/17 03:31:30;;;;;;;5.50;4.60;;;18.10;99.90;;;;;;4998563;28;20329;-63
2022/05/17 03:33:56;;;;;;;5.90;4.17;;;18.00;99.90;;;;;;4995898;28;20214;-63
2022/05/17 03:36:21;;;;;;;6.80;4.50;;;17.90;99.90;;;;;;5000130;28;20173;-63
2022/05/17 03:38:47;;;;;;;7.00;4.67;;;17.80;99.90;;;;;;4999568;28;20201;-63
2022/05/17 03:41:13;;;;;;;7.80;5.03;;;17.90;99.90;;;;;;4996036;28;20223;-64
2022/05/17 03:43:38;;;;;;;5.23;4.60;;;17.80;99.90;;;;;;4997347;28;20243;-64
2022/05/17 03:46:07;;;;;;;6.73;4.40;;;17.70;99.90;;;;;;4998730;28;20182;-64
2022/05/17 03:48:33;;;;;;;6.23;4.97;;;17.70;99.90;;;;;;4998266;28;20213;-63
2022/05/17 03:50:58;;;;;;;8.00;4.50;;;17.60;99.90;;;;;;4997605;28;20443;-65
2022/05/17 03:53:24;;;;;;;7.23;4.80;;;17.70;99.90;;;;;;4997306;28;20620;-64
2022/05/17 03:55:50;;;;;;;5.43;4.50;;;17.70;99.90;;;;;;4995931;28;20224;-64
2022/05/17 03:58:15;;;;;;;7.30;5.17;;;17.60;99.90;;;;;;5000752;28;20516;-64
2022/05/17 04:00:41;;;;;;;5.47;4.70;;;17.70;99.90;;;;;;4994429;28;20631;-64
2022/05/17 04:03:07;;;;;;;6.23;4.97;;;17.70;99.90;;;;;;4995870;28;20182;-64
2022/05/17 04:05:32;;;;;;;8.77;4.70;;;17.70;99.90;;;;;;4999123;28;20192;-63
2022/05/17 04:07:58;;;;;;;7.87;5.20;;;17.80;99.90;;;;;;4998812;28;20773;-63
2022/05/17 04:10:24;;;;;;;4.97;4.43;;;17.90;99.90;;;;;;4996181;28;20232;-63
2022/05/17 04:12:50;;;;;;;5.17;4.67;;;17.80;99.90;;;;;;4996934;28;20261;-64
2022/05/17 04:15:19;;;;;;;7.90;6.13;;;17.60;99.90;;;;;;4996087;28;20182;-64
2022/05/17 04:17:45;;;;;;;6.47;4.50;;;17.60;99.90;;;;;;4995187;28;20469;-64
2022/05/17 04:20:12;;;;;;;7.27;4.90;;;17.70;99.90;;;;;;4993479;28;20752;-64
2022/05/17 04:22:48;;;;;;;6.97;4.87;;;17.70;99.90;;;;;;4995459;28;20448;-64
2022/05/17 04:25:15;;;;;;;5.37;4.87;;;17.80;99.90;;;;;;4997301;28;20459;-64
2022/05/17 04:27:43;;;;;;;6.57;4.83;;;17.70;99.90;;;;;;4996375;28;20444;-63
2022/05/17 04:30:09;;;;;;;5.47;4.97;;;17.80;99.90;;;;;;4995442;28;20437;-63
2022/05/17 04:32:35;;;;;;;5.73;4.73;;;17.60;99.90;;;;;;4997729;28;20424;-63
2022/05/17 04:35:00;;;;;;;5.93;5.33;;;17.60;99.90;;;;;;4996918;28;20431;-63
2022/05/17 04:37:27;;;;;;;6.40;5.13;;;17.60;99.90;;;;;;4996262;28;20189;-64
2022/05/17 04:39:52;;;;;;;7.50;5.07;;;17.70;99.90;;;;;;4998292;28;20182;-63
2022/05/17 04:42:18;;;;;;;5.63;5.00;;;17.90;99.90;;;;;;4997736;28;20435;-63
2022/05/17 04:44:44;;;;;;;7.40;5.43;;;18.00;99.90;;;;;;4996371;28;20196;-63
2022/05/17 04:47:09;;;;;;;5.93;5.03;;;18.00;99.90;;;;;;4998250;28;20217;-64
2022/05/17 04:49:35;;;;;;;6.20;4.47;;;18.10;99.90;;;;;;4995002;28;20189;-63
2022/05/17 04:52:02;;;;;;;7.80;5.10;;;18.20;99.90;;;;;;4997267;28;20181;-63
2022/05/17 04:54:27;;;;;;;9.20;5.43;;;18.30;99.90;;;;;;4999042;28;20479;-63
2022/05/17 04:56:53;;;;;;;9.37;5.40;;;18.20;99.90;;;;;;4997609;28;20420;-63
2022/05/17 04:59:19;;;;;;;8.97;6.77;;;18.30;99.90;;;;;;4995604;28;20201;-64
2022/05/17 05:01:45;;;;;;;8.97;6.23;;;18.30;99.90;;;;;;4997556;28;20563;-63
2022/05/17 05:04:11;;;;;;;6.47;5.80;;;18.30;99.90;;;;;;4996606;28;20443;-63
2022/05/17 05:06:36;;;;;;;5.70;5.00;;;18.40;99.90;;;;;;4995688;28;20290;-63
2022/05/17 05:09:02;;;;;;;5.80;5.00;;;18.40;99.90;;;;;;4997643;28;20211;-64
2022/05/17 05:11:28;;;;;;;6.17;5.40;;;18.50;99.90;;;;;;4996211;28;20180;-63
2022/05/17 05:13:54;;;;;;;6.37;5.10;;;18.50;99.90;;;;;;4996087;28;20459;-63
2022/05/17 05:16:19;;;;;;;7.13;4.83;;;18.60;99.90;;;;;;4999862;28;20261;-63
2022/05/17 05:18:45;;;;;;;8.37;5.17;;;18.70;99.90;;;;;;4994250;28;20214;-63
2022/05/17 05:21:14;;;;;;;9.00;4.93;;;18.70;99.90;;;;;;4998776;28;20189;-63
2022/05/17 05:23:41;;;;;;;7.77;5.60;;;18.80;99.90;;;;;;4996641;28;20189;-63
2022/05/17 05:26:08;;;;;;;5.47;4.97;;;18.80;99.90;;;;;;4994911;28;20969;-63
2022/05/17 05:28:34;;;;;;;5.80;4.87;;;18.90;99.90;;;;;;4995620;28;20463;-63
2022/05/17 05:31:00;;;;;;;9.97;6.60;;;19.00;99.90;;;;;;4996750;28;20806;-63
2022/05/17 05:33:26;;;;;;;7.37;5.17;;;19.20;99.90;;;;;;4991146;28;20461;-63
2022/05/17 05:35:52;;;;;;;6.93;5.30;;;19.20;99.90;;;;;;4998651;28;20487;-63
2022/05/17 05:38:18;;;;;;;6.73;5.70;;;19.30;99.90;;;;;;4998133;28;20193;-63
2022/05/17 05:40:44;;;;;;;8.10;5.17;;;19.30;99.90;;;;;;4993103;28;20797;-63
2022/05/17 05:43:10;;;;;;;7.10;5.13;;;19.40;99.90;;;;;;4997424;28;20263;-63
2022/05/17 05:45:36;;;;;;;9.13;5.83;;;19.40;99.90;;;;;;5000583;28;20186;-63
2022/05/17 05:48:02;;;;;;;11.37;7.70;;;19.50;99.90;;;;;;4999185;28;20499;-63
2022/05/17 05:50:28;;;;;;;5.67;4.40;;;19.60;99.90;;;;;;4997620;28;20433;-63
2022/05/17 05:53:06;;;;;;;9.10;6.67;;;19.40;99.90;;;;;;4997062;28;20463;-63
2022/05/17 05:55:32;;;;;;;8.10;5.93;;;19.50;99.90;;;;;;5000031;28;20193;-63
2022/05/17 05:57:58;;;;;;;9.23;5.80;;;19.60;99.90;;;;;;5001019;28;21024;-63
2022/05/17 06:00:24;;;;;;;6.90;6.10;;;19.60;99.90;;;;;;4997842;28;20448;-63
2022/05/17 06:02:50;;;;;;;11.20;5.90;;;19.60;99.90;;;;;;5001289;28;20464;-63
2022/05/17 06:05:17;;;;;;;6.70;5.60;;;19.70;99.90;;;;;;4997219;28;20535;-63
2022/05/17 06:07:43;;;;;;;11.90;5.60;;;19.80;99.90;;;;;;4996657;28;20986;-63
2022/05/17 06:10:09;;;;;;;9.00;5.37;;;19.90;99.90;;;;;;4998768;28;20425;-63
2022/05/17 06:12:35;;;;;;;9.23;6.00;;;19.90;99.90;;;;;;5002916;28;20215;-63
2022/05/17 06:15:00;;;;;;;9.70;5.73;;;20.00;99.90;;;;;;5016174;28;20439;-63
2022/05/17 06:17:28;;;;;;;5.43;4.90;;;20.00;99.90;;;;;;4999238;28;20219;-63
2022/05/17 06:19:55;;;;;;;7.10;5.90;;;20.10;99.90;;;;;;5000635;28;20181;-63
2022/05/17 06:22:21;;;;;;;9.33;5.00;;;20.20;99.90;;;;;;4996587;28;20443;-64
2022/05/17 06:24:47;;;;;;;6.23;4.97;;;20.20;99.90;;;;;;4995569;28;20425;-63
2022/05/17 06:27:12;;;;;;;7.60;5.70;;;20.30;99.90;;;;;;5000693;28;20502;-63
2022/05/17 06:29:38;;;;;;;9.07;6.13;;;20.40;99.90;;;;;;4998419;28;20193;-63
2022/05/17 06:32:05;;;;;;;7.37;5.10;;;20.50;99.90;;;;;;5003276;28;20185;-63
2022/05/17 06:34:31;;;;;;;6.97;5.60;;;20.50;99.90;;;;;;4995715;28;20327;-63
2022/05/17 06:36:56;;;;;;;6.63;5.23;;;20.40;99.90;;;;;;4997868;28;20947;-63
2022/05/17 06:39:22;;;;;;;8.97;5.17;;;20.60;99.90;;;;;;4999783;28;20290;-63
2022/05/17 06:41:47;;;;;;;9.80;5.97;;;20.70;99.90;;;;;;4997957;28;20190;-63
2022/05/17 06:44:13;;;;;;;10.10;6.73;;;20.80;99.90;;;;;;5000520;28;20263;-63
2022/05/17 06:46:39;;;;;;;7.37;4.60;;;20.70;99.90;;;;;;5001350;28;20558;-63
2022/05/17 06:49:04;;;;;;;7.20;5.90;;;20.90;99.90;;;;;;4996596;28;20213;-63
2022/05/17 06:51:35;;;;;;;7.10;5.80;;;21.00;99.90;;;;;;4999072;28;20284;-63
2022/05/17 06:54:03;;;;;;;9.30;5.80;;;21.10;99.90;;;;;;4999193;28;20303;-63
2022/05/17 06:56:29;;;;;;;8.67;6.00;;;21.10;99.90;;;;;;4995043;28;20863;-63
2022/05/17 06:58:56;;;;;;;8.53;6.40;;;21.10;99.90;;;;;;4999655;28;20471;-63
2022/05/17 07:01:22;;;;;;;7.43;5.70;;;21.20;99.90;;;;;;4999656;28;20177;-63
2022/05/17 07:03:50;;;;;;;7.53;5.67;;;21.40;99.90;;;;;;4996677;28;20440;-63
2022/05/17 07:06:15;;;;;;;6.67;5.97;;;21.50;99.90;;;;;;4995645;28;20892;-63
2022/05/17 07:08:41;;;;;;;6.83;6.10;;;21.60;99.90;;;;;;4998055;28;20553;-63
2022/05/17 07:14:04;;;;;;;6.90;6.20;;;21.90;99.90;;;;;;5000016;28;20932;-63
2022/05/17 07:16:30;;;;;;;7.00;5.30;;;22.00;99.90;;;;;;5000387;28;20440;-63
2022/05/17 07:18:56;;;;;;;10.10;5.37;;;22.10;99.90;;;;;;4996745;28;20308;-63
2022/05/17 07:21:21;;;;;;;5.90;4.70;;;22.10;99.90;;;;;;4999400;28;20508;-63
2022/05/17 07:23:47;;;;;;;7.23;5.23;;;22.00;99.90;;;;;;4997044;28;20208;-63
2022/05/17 07:26:14;;;;;;;7.70;6.07;;;22.10;99.90;;;;;;4998637;28;20186;-63
2022/05/17 07:28:46;;;;;;;5.30;4.80;;;22.20;99.90;;;;;;4995847;28;20224;-63
2022/05/17 07:31:12;;;;;;;10.93;6.70;;;22.30;99.90;;;;;;4995182;28;20435;-63
2022/05/17 07:33:38;;;;;;;7.37;5.87;;;22.50;99.90;;;;;;4996228;28;20571;-63
2022/05/17 07:36:05;;;;;;;6.73;6.07;;;22.50;99.90;;;;;;4999685;28;20494;-63
2022/05/17 07:38:32;;;;;;;7.90;5.80;;;22.70;99.90;;;;;;4998631;28;20538;-63
2022/05/17 07:40:57;;;;;;;7.23;5.60;;;22.70;99.90;;;;;;4998022;28;20427;-63
2022/05/17 07:43:24;;;;;;;7.70;6.30;;;22.90;99.90;;;;;;4997957;28;20423;-63
2022/05/17 07:45:50;;;;;;;8.63;7.70;;;23.00;99.90;;;;;;4997239;28;20193;-63
2022/05/17 07:48:20;;;;;;;7.90;7.10;;;23.10;99.90;;;;;;4994606;28;20477;-63
2022/05/17 07:50:46;;;;;;;7.17;6.43;;;23.10;99.90;;;;;;4995688;28;20763;-63
2022/05/17 07:53:14;;;;;;;7.67;5.73;;;23.10;99.90;;;;;;4996717;28;20821;-62
2022/05/17 07:55:41;;;;;;;7.10;6.20;;;23.30;99.90;;;;;;4997951;28;20527;-63
2022/05/17 07:58:07;;;;;;;8.60;5.60;;;23.40;99.90;;;;;;4999330;28;20455;-63
2022/05/17 08:00:34;;;;;;;11.27;8.07;;;23.60;99.90;;;;;;4996054;28;20724;-63
2022/05/17 08:03:00;;;;;;;6.43;5.30;;;23.80;99.90;;;;;;4997583;28;20505;-63
2022/05/17 08:05:28;;;;;;;5.67;5.13;;;23.80;99.90;;;;;;4996258;28;20464;-63
2022/05/17 08:07:53;;;;;;;7.50;5.63;;;24.10;99.90;;;;;;4998375;28;20461;-63
2022/05/17 08:10:20;;;;;;;8.30;5.70;;;24.10;99.90;;;;;;4998928;28;20914;-64
2022/05/17 08:12:47;;;;;;;6.10;5.50;;;24.30;99.90;;;;;;4997242;28;20305;-64
2022/05/17 08:15:13;;;;;;;5.87;5.10;;;24.50;99.90;;;;;;4997680;28;20420;-64
2022/05/17 08:17:38;;;;;;;5.80;4.90;;;24.40;99.90;;;;;;4998601;28;20913;-62
2022/05/17 08:20:09;;;;;;;9.40;6.43;;;24.50;99.90;;;;;;4994230;28;20464;-62
2022/05/17 08:22:39;;;;;;;7.20;5.63;;;24.50;99.90;;;;;;4996374;28;20231;-62
2022/05/17 08:27:50;;;;;;;8.90;5.47;;;24.50;99.90;;;;;;4992155;28;20546;-62
2022/05/17 08:30:21;;;;;;;7.97;6.07;;;24.60;99.90;;;;;;4994579;28;20953;-62
2022/05/17 08:33:15;;;;;;;8.00;5.60;;;24.70;99.90;;;;;;4998615;28;20331;-62
2022/05/17 08:36:02;;;;;;;5.03;4.53;;;24.90;99.90;;;;;;4989762;28;20435;-63
2022/05/17 08:38:29;;;;;;;7.43;4.80;;;25.00;99.90;;;;;;4998004;28;20534;-63
2022/05/17 08:41:41;;;;;;;5.20;4.10;;;25.00;99.90;;;;;;4996875;28;20830;-63
2022/05/17 08:44:08;;;;;;;10.00;5.20;;;25.00;99.90;;;;;;4979097;28;20437;-63
2022/05/17 08:46:37;;;;;;;5.97;4.20;;;25.10;99.90;;;;;;4979960;28;20515;-62
2022/05/17 08:49:29;;;;;;;5.03;3.50;;;25.00;99.90;;;;;;4986748;28;20480;-62
2022/05/17 08:52:07;;;;;;;4.40;3.97;;;25.20;99.90;;;;;;5012103;28;20451;-62
2022/05/17 08:54:53;;;;;;;9.47;4.73;;;25.20;99.90;;;;;;4995420;28;20463;-62
2022/05/17 08:57:30;;;;;;;6.73;4.60;;;25.20;99.90;;;;;;4996448;28;20455;-62
2022/05/17 08:59:57;;;;;;;8.60;5.50;;;25.00;99.90;;;;;;5009304;28;20424;-63
2022/05/17 09:02:44;;;;;;;9.70;4.70;;;25.00;99.90;;;;;;4996195;28;20443;-63
2022/05/17 09:05:30;;;;;;;4.90;4.37;;;25.20;99.90;;;;;;4996416;28;20839;-63
2022/05/17 09:08:24;;;;;;;6.43;4.10;;;25.40;99.90;;;;;;4997076;28;20998;-63
2022/05/17 09:11:19;;;;;;;8.30;4.43;;;25.50;99.90;;;;;;4996227;28;20824;-63
2022/05/17 09:14:00;;;;;;;5.30;4.80;;;25.20;99.90;;;;;;4995316;28;20474;-63
2022/05/17 09:16:31;;;;;;;6.93;4.50;;;25.20;99.90;;;;;;4992588;28;20434;-63
2022/05/17 09:18:57;;;;;;;4.97;4.53;;;25.20;99.90;;;;;;5000695;28;20473;-63
2022/05/17 09:21:32;;;;;;;12.93;8.10;;;25.20;99.90;;;;;;5000633;28;20444;-63
2022/05/17 09:24:04;;;;;;;13.33;6.00;;;25.30;99.40;;;;;;5001722;28;20325;-63
2022/05/17 09:26:31;;;;;;;7.77;6.10;;;25.20;99.90;;;;;;5000741;28;20531;-63
2022/05/17 09:29:29;;;;;;;5.70;4.60;;;25.30;99.60;;;;;;4999228;28;20467;-63
2022/05/17 09:32:02;;;;;;;7.20;4.67;;;25.30;99.30;;;;;;4995112;28;20474;-63
2022/05/17 09:34:45;;;;;;;5.00;4.60;;;25.30;99.20;;;;;;5000380;28;20527;-63
2022/05/17 09:37:20;;;;;;;4.50;4.07;;;25.50;98.30;;;;;;5000026;28;20890;-63
2022/05/17 09:39:48;;;;;;;6.00;5.50;;;25.60;97.60;;;;;;4997812;28;20990;-63
2022/05/17 09:42:24;;;;;;;6.83;6.17;;;25.50;97.10;;;;;;5000489;28;20462;-63
2022/05/17 09:44:52;;;;;;;6.40;4.50;;;25.50;97.20;;;;;;4999187;28;20451;-63
2022/05/17 09:47:33;;;;;;;4.40;4.00;;;25.60;97.60;;;;;;4999446;28;20977;-63
2022/05/17 09:53:03;;;;;;;7.63;4.37;;;25.80;96.70;;;;;;5000350;28;20802;-63
2022/05/17 09:55:31;;;;;;;6.43;4.33;;;25.80;97.10;;;;;;4998148;28;20425;-63
2022/05/17 09:57:58;;;;;;;6.37;4.13;;;25.90;97.40;;;;;;4996483;28;20448;-63
2022/05/17 10:00:31;;;;;;;4.00;3.67;;;25.90;96.80;;;;;;5001979;28;20775;-63
2022/05/17 10:03:03;;;;;;;4.80;4.03;;;26.00;96.70;;;;;;4999140;28;20412;-63
2022/05/17 10:05:45;;;;;;;5.63;3.80;;;26.00;95.30;;;;;;4997631;28;20827;-63
2022/05/17 10:08:13;;;;;;;7.77;4.53;;;26.00;95.00;;;;;;4999368;28;20501;-63
2022/05/17 10:10:42;;;;;;;7.40;4.13;;;26.10;95.20;;;;;;5000346;28;20486;-63
2022/05/17 10:13:23;;;;;;;8.03;5.07;;;26.20;94.70;;;;;;4995839;28;20460;-63
2022/05/17 10:15:54;;;;;;;4.90;4.33;;;26.20;94.90;;;;;;4999745;28;20528;-64
2022/05/17 10:18:42;;;;;;;8.03;4.40;;;26.40;94.80;;;;;;4998639;28;20635;-63
2022/05/17 10:21:50;;;;;;;4.97;4.47;;;26.50;94.30;;;;;;4996541;28;20440;-63
2022/05/17 10:24:40;;;;;;;5.37;3.80;;;26.50;94.70;;;;;;4996493;28;20439;-63
2022/05/17 10:27:13;;;;;;;6.20;3.90;;;26.60;93.20;;;;;;4998908;28;20443;-63
2022/05/17 10:29:48;;;;;;;7.10;4.17;;;26.60;93.00;;;;;;4999987;28;20801;-63
2022/05/17 10:32:32;;;;;;;5.97;4.43;;;26.70;91.90;;;;;;4997771;28;20428;-63
2022/05/17 10:35:06;;;;;;;7.63;4.60;;;26.70;90.80;;;;;;4997606;28;20453;-63
2022/05/17 10:37:44;;;;;;;4.77;4.20;;;26.60;90.50;;;;;;5000592;28;20450;-63
2022/05/17 10:40:14;;;;;;;4.03;3.63;;;26.60;90.40;;;;;;4997250;28;20412;-63
2022/05/17 10:42:41;;;;;;;4.70;4.30;;;26.70;90.40;;;;;;4997416;28;20801;-63
2022/05/17 10:45:10;;;;;;;4.30;3.90;;;26.70;91.10;;;;;;5000630;28;20432;-63
2022/05/17 10:47:43;;;;;;;4.17;3.60;;;26.80;89.70;;;;;;4998202;28;20566;-63
2022/05/17 10:50:14;;;;;;;11.97;3.87;;;26.80;90.00;;;;;;4997453;28;20467;-63
2022/05/17 10:53:10;;;;;;;5.97;4.20;;;26.80;90.50;;;;;;5001864;28;20416;-63
2022/05/17 10:55:47;;;;;;;5.87;3.73;;;26.90;86.40;;;;;;4996376;28;20772;-63
2022/05/17 10:58:22;;;;;;;5.03;3.90;;;26.90;85.70;;;;;;4996473;28;20452;-63
2022/05/17 11:01:01;;;;;;;5.77;4.33;;;27.10;81.80;;;;;;4995558;28;20399;-63
2022/05/17 11:03:51;;;;;;;4.20;3.80;;;26.80;83.00;;;;;;4998471;28;20798;-63
2022/05/17 11:06:40;;;;;;;5.53;3.80;;;26.80;84.40;;;;;;4998579;28;20523;-63
2022/05/17 11:09:26;;;;;;;5.00;3.50;;;27.10;85.40;;;;;;4994115;28;20451;-63
2022/05/17 11:12:05;;;;;;;9.50;3.90;;;27.30;86.10;;;;;;4997761;28;20486;-63
2022/05/17 11:14:52;;;;;;;5.53;4.43;;;27.50;87.10;;;;;;4997083;28;20901;-64
2022/05/17 11:17:36;;;;;;;7.50;4.40;;;27.70;79.00;;;;;;4998210;28;20879;-63
2022/05/17 11:20:27;;;;;;;4.10;3.70;;;27.80;77.60;;;;;;4998194;28;20817;-63
2022/05/17 11:23:11;;;;;;;5.37;4.10;;;27.70;79.30;;;;;;4998597;28;20402;-63
2022/05/17 11:25:55;;;;;;;4.70;3.53;;;27.80;81.60;;;;;;4996285;28;20395;-63
2022/05/17 11:28:50;;;;;;;4.30;3.50;;;27.70;82.90;;;;;;4998198;28;20415;-63
2022/05/17 11:31:50;;;;;;;4.43;3.73;;;27.80;82.00;;;;;;5000238;28;20428;-63
2022/05/17 11:34:32;;;;;;;4.50;4.10;;;27.90;81.00;;;;;;4995819;28;20468;-64
2022/05/17 11:37:03;;;;;;;6.00;3.90;;;28.20;80.50;;;;;;4995050;28;20421;-63
2022/05/17 11:39:32;;;;;;;5.57;3.63;;;28.50;77.70;;;;;;5000942;28;20436;-63
2022/05/17 11:42:07;;;;;;;14.23;3.90;;;28.70;76.50;;;;;;4997207;28;20427;-63
2022/05/17 11:44:44;;;;;;;5.00;3.53;;;28.90;75.90;;;;;;4998167;28;20514;-63
2022/05/17 11:47:31;;;;;;;6.40;3.40;;;29.00;75.40;;;;;;5014825;28;20463;-63
2022/05/17 11:50:15;;;;;;;3.80;3.50;;;29.20;73.80;;;;;;4997356;28;21256;-63
2022/05/17 11:52:47;;;;;;;8.30;5.90;;;29.70;73.40;;;;;;4997580;28;20477;-63
2022/05/17 11:55:17;;;;;;;4.10;3.70;;;30.10;72.90;;;;;;4997297;28;20459;-63
2022/05/17 11:57:49;;;;;;;7.70;7.00;;;30.50;67.90;;;;;;4998502;28;20817;-63
2022/05/17 12:00:23;;;;;;;4.50;3.73;;;31.50;69.00;;;;;;4997337;28;20448;-63
2022/05/17 12:02:53;;;;;;;5.93;3.33;;;33.30;66.60;;;;;;4998731;28;20424;-63
2022/05/17 12:05:37;;;;;;;4.00;3.60;;;35.30;60.70;;;;;;4994245;28;20425;-62
2022/05/17 12:08:43;;;;;;;4.30;3.40;;;36.30;55.70;;;;;;4997291;28;20453;-63
2022/05/17 12:11:11;;;;;;;3.90;3.60;;;36.60;52.30;;;;;;4993997;28;20464;-63
2022/05/17 12:13:53;;;;;;;4.20;3.50;;;38.20;51.60;;;;;;4995595;28;20464;-63
2022/05/17 12:16:23;;;;;;;9.23;8.30;;;39.70;48.40;;;;;;5001757;28;20412;-63
2022/05/17 12:18:53;;;;;;;6.17;4.07;;;40.90;46.70;;;;;;4996396;28;20481;-63
2022/05/17 12:21:58;;;;;;;3.60;3.30;;;41.90;43.90;;;;;;4994823;28;20439;-66
2022/05/17 12:24:36;;;;;;;3.50;3.20;;;42.40;42.10;;;;;;4996386;28;20516;-63
2022/05/17 12:27:23;;;;;;;6.27;4.27;;;43.10;39.50;;;;;;4997035;28;20872;-63
2022/05/17 12:32:44;;;;;;;6.47;3.83;;;43.70;37.50;;;;;;4997348;28;20428;-63
2022/05/17 12:35:10;;;;;;;8.83;4.47;;;44.00;37.00;;;;;;4994622;28;20424;-64
2022/05/17 12:37:42;;;;;;;3.60;3.30;;;44.60;36.10;;;;;;4996816;28;21843;-63
2022/05/17 12:43:02;;;;;;;5.77;3.50;;;45.40;33.20;;;;;;4997992;28;20414;-63
2022/05/17 12:45:34;;;;;;;3.67;3.27;;;45.80;33.10;;;;;;4997707;28;20439;-64
2022/05/17 12:48:10;;;;;;;3.63;3.10;;;46.30;32.00;;;;;;4998241;28;20450;-64
2022/05/17 12:50:56;;;;;;;4.63;4.23;;;46.70;31.00;;;;;;4998740;28;20184;-64
2022/05/17 12:53:36;;;;;;;3.80;2.80;;;47.30;30.70;;;;;;4999852;28;20823;-64
2022/05/17 12:56:07;;;;;;;3.50;2.77;;;47.50;29.70;;;;;;4998555;28;20180;-64
2022/05/17 12:58:48;;;;;;;3.87;2.90;;;45.90;30.00;;;;;;4999200;28;20596;-64
2022/05/17 13:01:19;;;;;;;3.70;3.40;;;45.70;30.60;;;;;;4996104;28;20440;-64
2022/05/17 13:03:45;;;;;;;2.73;2.53;;;46.00;30.20;;;;;;5002470;28;20183;-64
2022/05/17 13:06:11;;;;;;;3.00;2.73;;;45.60;29.60;;;;;;5000235;28;20436;-63
2022/05/17 13:08:38;;;;;;;3.20;2.90;;;45.50;30.20;;;;;;4998611;28;20291;-63
2022/05/17 13:11:06;;;;;;;4.40;3.60;;;46.00;29.80;;;;;;5001827;28;20184;-63
2022/05/17 13:13:34;;;;;;;4.50;3.77;;;46.10;29.90;;;;;;5002999;28;20482;-63
2022/05/17 13:16:22;;;;;;;4.00;3.70;;;46.00;29.60;;;;;;4998673;28;20514;-63